createdAt,value
2023-01-28T00:01:30.840Z,66.10
2023-01-28T00:06:33.517Z,66.09
2023-01-28T00:11:41.191Z,65.90
2023-01-28T00:16:49.638Z,66.13
2023-01-28T00:21:55.666Z,66.18
2023-01-28T00:27:11.594Z,66.23
2023-01-28T00:32:14.179Z,66.12
2023-01-28T00:37:20.498Z,66.19
2023-01-28T00:42:26.005Z,66.06
2023-01-28T00:47:38.121Z,66.07
2023-01-28T00:52:45.955Z,66.04
2023-01-28T00:58:03.761Z,66.05
2023-01-28T01:03:13.973Z,66.15
2023-01-28T01:08:22.646Z,66.10
2023-01-28T01:13:32.819Z,66.01
2023-01-28T01:18:46.549Z,66.19
2023-01-28T01:23:52.538Z,66.08
2023-01-28T01:28:58.122Z,66.15
2023-01-28T01:34:08.977Z,66.11
2023-01-28T01:39:14.789Z,65.98
2023-01-28T01:44:54.107Z,66.07
2023-01-28T01:50:00.192Z,66.23
2023-01-28T01:55:07.807Z,66.19
2023-01-28T02:00:16.053Z,66.14
2023-01-28T02:05:27.765Z,66.16
2023-01-28T02:10:36.735Z,66.13
2023-01-28T02:15:49.935Z,66.05
2023-01-28T02:21:21.782Z,66.11
2023-01-28T02:27:02.432Z,66.03
2023-01-28T02:32:09.994Z,66.28
2023-01-28T02:37:20.057Z,66.21
2023-01-28T02:42:27.052Z,66.25
2023-01-28T02:47:33.141Z,66.27
2023-01-28T02:53:06.857Z,66.23
2023-01-28T02:58:15.335Z,66.20
2023-01-28T03:03:56.779Z,66.22
2023-01-28T03:09:07.144Z,66.17
2023-01-28T03:14:10.442Z,66.02
2023-01-28T03:19:15.810Z,66.10
2023-01-28T03:24:26.427Z,66.20
2023-01-28T03:29:32.791Z,66.30
2023-01-28T03:34:40.286Z,66.46
2023-01-28T03:39:48.751Z,66.22
2023-01-28T03:44:51.410Z,65.95
2023-01-28T03:49:58.297Z,66.22
2023-01-28T03:55:07.879Z,66.21
2023-01-28T04:00:11.091Z,66.19
2023-01-28T04:05:22.492Z,66.12
2023-01-28T04:10:31.268Z,66.16
2023-01-28T04:15:36.493Z,66.18
2023-01-28T04:20:44.681Z,65.98
2023-01-28T04:26:03.577Z,66.09
2023-01-28T04:31:14.735Z,66.05
2023-01-28T04:36:29.414Z,65.84
2023-01-28T04:41:40.469Z,66.28
2023-01-28T04:46:46.849Z,66.19
2023-01-28T04:52:07.780Z,66.01
2023-01-28T04:57:15.244Z,66.13
2023-01-28T05:02:22.600Z,66.26
2023-01-28T05:07:29.616Z,66.04
2023-01-28T05:12:33.905Z,65.99
2023-01-28T05:17:44.175Z,65.97
2023-01-28T05:23:00.673Z,66.23
2023-01-28T05:28:06.442Z,65.84
2023-01-28T05:33:15.918Z,65.94
2023-01-28T05:38:26.653Z,66.00
2023-01-28T05:43:38.466Z,66.08
2023-01-28T05:48:44.600Z,66.03
2023-01-28T05:53:51.955Z,66.06
2023-01-28T05:59:11.891Z,66.04
2023-01-28T06:04:24.128Z,66.09
2023-01-28T06:09:43.254Z,66.12
2023-01-28T06:14:45.873Z,66.23
2023-01-28T06:25:08.294Z,66.06
2023-01-28T06:30:21.012Z,66.04
2023-01-28T06:35:26.550Z,66.05
2023-01-28T06:40:42.227Z,66.10
2023-01-28T06:45:50.711Z,66.07
2023-01-28T06:50:58.706Z,66.10
2023-01-28T06:56:20.179Z,66.03
2023-01-28T07:01:29.982Z,65.99
2023-01-28T07:06:44.292Z,66.07
2023-01-28T07:11:51.770Z,65.75
2023-01-28T07:17:02.039Z,65.98
2023-01-28T07:22:07.551Z,66.04
2023-01-28T07:27:14.767Z,66.14
2023-01-28T07:32:17.458Z,66.11
2023-01-28T07:37:23.089Z,66.09
2023-01-28T07:42:39.628Z,65.98
2023-01-28T07:53:26.500Z,65.93
2023-01-28T07:59:06.379Z,66.04
2023-01-28T08:10:27.842Z,65.98
2023-01-28T08:16:00.911Z,66.04
2023-01-28T08:21:26.752Z,66.03
2023-01-28T10:26:13.247Z,65.67
2023-01-28T10:31:25.016Z,65.61
2023-01-28T10:36:28.879Z,65.82
2023-01-28T10:41:51.827Z,65.89
2023-01-28T10:47:16.806Z,66.00
2023-01-28T10:52:26.949Z,66.01
2023-01-28T10:57:33.573Z,66.02
2023-01-28T11:03:02.081Z,65.91
2023-01-28T11:08:21.180Z,66.07
2023-01-28T11:13:30.787Z,66.03
2023-01-28T11:19:03.166Z,66.03
2023-01-28T11:29:48.975Z,66.07
2023-01-28T11:35:04.957Z,66.12
2023-01-28T11:40:40.921Z,66.06
2023-01-28T11:46:14.660Z,66.07
2023-01-28T11:51:52.439Z,66.05
2023-01-28T11:57:20.872Z,66.34
2023-01-28T12:03:04.238Z,66.23
2023-01-28T12:13:54.456Z,66.15
2023-01-28T12:19:15.426Z,66.13
2023-01-28T12:24:38.022Z,66.15
2023-01-28T12:30:22.397Z,66.37
2023-01-28T12:35:53.679Z,66.27
2023-01-28T12:41:30.867Z,66.20
2023-01-28T12:47:04.444Z,66.19
2023-01-28T12:52:35.419Z,66.23
2023-01-28T13:03:27.421Z,66.07
2023-01-28T13:08:38.549Z,66.33
2023-01-28T13:13:47.348Z,66.40
2023-01-28T13:19:14.159Z,66.27
2023-01-28T13:24:18.578Z,66.35
2023-01-28T13:29:29.686Z,66.30
2023-01-28T13:34:40.025Z,66.27
2023-01-28T13:40:22.933Z,66.30
2023-01-28T13:45:31.732Z,66.35
2023-01-28T13:50:40.676Z,66.27
2023-01-28T13:55:58.751Z,66.32
2023-01-28T14:01:11.583Z,66.27
2023-01-28T14:06:42.298Z,66.16
2023-01-28T14:18:02.831Z,66.16
2023-01-28T14:23:43.381Z,66.31
2023-01-28T14:29:10.756Z,66.23
2023-01-28T14:34:28.161Z,66.23
2023-01-28T14:39:54.739Z,66.48
2023-01-28T14:45:13.537Z,66.21
2023-01-28T14:50:41.718Z,66.27
2023-01-28T14:56:12.373Z,66.29
2023-01-28T15:01:37.600Z,66.28
2023-01-28T15:06:45.700Z,66.28
2023-01-28T15:52:13.948Z,66.42
2023-01-28T16:19:49.451Z,66.29
2023-01-28T16:25:44.696Z,66.21
2023-01-28T16:53:21.904Z,66.37
2023-01-28T17:00:03.104Z,66.25
2023-01-28T17:05:09.447Z,66.09
2023-01-28T17:10:16.755Z,66.16
2023-01-28T17:15:19.408Z,66.45
2023-01-28T17:20:22.247Z,66.18
2023-01-28T17:25:24.385Z,66.30
2023-01-28T17:30:26.518Z,66.23
2023-01-28T17:35:31.506Z,66.28
2023-01-28T17:40:36.537Z,66.12
2023-01-28T17:45:46.257Z,66.31
2023-01-28T17:50:50.698Z,66.23
2023-01-28T17:55:55.953Z,66.12
2023-01-28T18:00:58.400Z,66.10
2023-01-28T18:06:03.393Z,66.22
2023-01-28T18:11:10.677Z,66.08
2023-01-28T18:16:18.194Z,66.02
2023-01-28T18:21:46.588Z,66.00
2023-01-28T18:26:54.199Z,65.99
2023-01-28T18:31:57.129Z,65.96
2023-01-28T18:36:59.645Z,66.16
2023-01-28T18:42:07.526Z,65.92
2023-01-28T18:47:14.290Z,66.05
2023-01-28T18:52:16.502Z,66.13
2023-01-28T18:57:22.643Z,66.05
2023-01-28T19:03:05.927Z,66.02
2023-01-28T19:08:21.931Z,66.05
2023-01-28T19:13:58.065Z,65.92
2023-01-28T19:20:00.502Z,65.66
2023-01-28T19:24:54.919Z,65.96
2023-01-28T19:30:15.856Z,65.94
2023-01-28T19:35:25.285Z,65.94
2023-01-28T19:40:28.590Z,65.89
2023-01-28T19:45:37.434Z,65.81
2023-01-28T19:51:12.230Z,65.77
2023-01-28T19:56:26.893Z,65.91
2023-01-28T20:12:24.178Z,65.96
2023-01-28T20:17:40.865Z,65.99
2023-01-28T20:22:49.170Z,65.84
2023-01-28T21:54:22.034Z,65.59
2023-01-28T21:59:32.309Z,65.61
2023-01-28T22:04:39.205Z,65.53
2023-01-28T22:15:10.875Z,65.63
2023-01-28T22:41:58.045Z,65.52
2023-01-28T22:52:24.331Z,65.45
2023-01-28T22:57:38.234Z,65.37
2023-01-28T23:19:19.239Z,65.52
